| time (UTC) | temp F | wind direction | speed MPH | gust MPH | rain 1hr in | rain 24hr in | rain mn in | humidity % | barometer mb |
| 20260506231548 | 61 | 360 | 0.0 | 1.0 | 0.03 | 0.30 | 0.30 | 92 | 1015.6 |
| 20260506224553 | 62 | 0 | 0.0 | 3.0 | 0.01 | 0.28 | 0.28 | 90 | 1015.2 |
| 20260506223052 | 62 | 0 | 0.0 | 3.0 | 0.02 | 0.27 | 0.27 | 90 | 1015.4 |
| 20260506221600 | 62 | 0 | 0.0 | 2.0 | 0.02 | 0.27 | 0.27 | 90 | 1014.6 |
| 20260506220053 | 62 | 278 | 1.0 | 3.0 | 0.03 | 0.27 | 0.27 | 88 | 1014.4 |
| 20260506214559 | 63 | 257 | 1.0 | 7.0 | 0.03 | 0.27 | 0.27 | 87 | 1015.1 |
| 20260506213056 | 63 | 227 | 3.0 | 8.0 | 0.01 | 0.25 | 0.25 | 86 | 1015.6 |
| 20260506211553 | 65 | 115 | 0.0 | 8.0 | 0.01 | 0.25 | 0.25 | 83 | 1015.0 |
| 20260506210051 | 65 | 238 | 4.0 | 11.0 | 0.00 | 0.24 | 0.24 | 79 | 1015.6 |
| 20260506204556 | 67 | 268 | 4.0 | 10.0 | 0.00 | 0.24 | 0.24 | 76 | 1015.7 |
| 20260506203049 | 67 | 202 | 3.0 | 11.0 | 0.00 | 0.24 | 0.24 | 76 | 1015.7 |
| 20260506201550 | 67 | 257 | 6.0 | 11.0 | 0.00 | 0.24 | 0.24 | 74 | 1015.6 |
| 20260506200055 | 68 | 241 | 5.0 | 10.0 | 0.00 | 0.24 | 0.24 | 72 | 1015.6 |
| 20260506194556 | 68 | 200 | 5.0 | 15.0 | 0.00 | 0.24 | 0.24 | 73 | 1015.4 |
| 20260506193057 | 68 | 234 | 5.0 | 16.0 | 0.00 | 0.24 | 0.24 | 73 | 1015.7 |
| 20260506191601 | 68 | 251 | 8.0 | 18.0 | 0.00 | 0.24 | 0.24 | 72 | 1015.8 |
| 20260506190053 | 70 | 230 | 7.0 | 16.0 | 0.00 | 0.24 | 0.24 | 70 | 1015.6 |
| 20260506184557 | 69 | 286 | 4.0 | 11.0 | 0.00 | 0.24 | 0.24 | 72 | 1015.6 |
| 20260506183102 | 68 | 205 | 4.0 | 9.0 | 0.00 | 0.24 | 0.24 | 76 | 1015.3 |
| 20260506181602 | 67 | 223 | 2.0 | 9.0 | 0.00 | 0.24 | 0.24 | 77 | 1015.2 |
| 20260506180058 | 66 | 225 | 2.0 | 11.0 | 0.00 | 0.24 | 0.24 | 81 | 1015.3 |
| 20260506174558 | 66 | 267 | 1.0 | 6.0 | 0.00 | 0.24 | 0.24 | 85 | 1015.2 |
| 20260506173122 | 64 | 215 | 1.0 | 7.0 | 0.00 | 0.24 | 0.24 | 88 | 1015.2 |
| 20260506171602 | 62 | 242 | 2.0 | 8.0 | 0.00 | 0.24 | 0.24 | 90 | 1015.4 |
| 20260506170105 | 61 | 209 | 2.0 | 5.0 | 0.00 | 0.24 | 0.24 | 94 | 1015.7 |
| 20260506164551 | 61 | 122 | 0.0 | 4.0 | 0.01 | 0.24 | 0.24 | 95 | 1016.0 |
| 20260506163058 | 59 | 253 | 2.0 | 5.0 | 0.02 | 0.24 | 0.24 | 94 | 1017.2 |
| 20260506161553 | 59 | 246 | 1.0 | 5.0 | 0.11 | 0.24 | 0.24 | 94 | 1017.8 |
| 20260506160057 | 59 | 217 | 3.0 | 8.0 | 0.16 | 0.24 | 0.24 | 93 | 1018.0 |
| 20260506154611 | 59 | 194 | 2.0 | 5.0 | 0.19 | 0.23 | 0.23 | 92 | 1017.8 |
| 20260506153056 | 59 | 0 | 1.0 | 7.0 | 0.19 | 0.22 | 0.22 | 91 | 1017.0 |
| 20260506151555 | 60 | 211 | 1.0 | 4.0 | 0.12 | 0.13 | 0.13 | 89 | 1017.6 |
| 20260506150050 | 61 | 0 | 0.0 | 2.0 | 0.07 | 0.08 | 0.08 | 88 | 1016.8 |
| 20260506144601 | 61 | 0 | 1.0 | 3.0 | 0.03 | 0.04 | 0.04 | 87 | 1016.5 |
| 20260506143056 | 61 | 0 | 2.0 | 6.0 | 0.02 | 0.03 | 0.03 | 83 | 1016.1 |
| 20260506141551 | 61 | 205 | 2.0 | 9.0 | 0.01 | 0.01 | 0.01 | 82 | 1016.0 |
| 20260506140054 | 61 | 0 | 1.0 | 6.0 | 0.01 | 0.01 | 0.01 | 84 | 1016.0 |
| 20260506134551 | 60 | 238 | 2.0 | 8.0 | 0.01 | 0.01 | 0.01 | 83 | 1015.7 |
| 20260506133119 | 61 | 183 | 1.0 | 8.0 | 0.01 | 0.01 | 0.01 | 81 | 1015.6 |
| 20260506131555 | 62 | 332 | 6.0 | 16.0 | 0.00 | 0.00 | 0.00 | 77 | 1016.2 |
| 20260506130119 | 63 | 316 | 5.0 | 14.0 | 0.00 | 0.00 | 0.00 | 74 | 1015.7 |
| 20260506124555 | 63 | 229 | 2.0 | 9.0 | 0.00 | 0.00 | 0.00 | 74 | 1015.6 |
| 20260506123054 | 63 | 352 | 2.0 | 5.0 | 0.00 | 0.00 | 0.00 | 75 | 1015.2 |
| 20260506121554 | 62 | 292 | 2.0 | 7.0 | 0.00 | 0.00 | 0.00 | 74 | 1015.2 |
| 20260506120055 | 62 | 242 | 3.0 | 7.0 | 0.00 | 0.00 | 0.00 | 74 | 1015.1 |
| 20260506114600 | 62 | 251 | 2.0 | 10.0 | 0.00 | 0.00 | 0.00 | 74 | 1015.2 |
| 20260506113053 | 62 | 262 | 2.0 | 8.0 | 0.00 | 0.00 | 0.00 | 74 | 1015.0 |
| 20260506111551 | 62 | 0 | 1.0 | 7.0 | 0.00 | 0.00 | 0.00 | 74 | 1015.2 |
| 20260506110047 | 62 | 225 | 3.0 | 7.0 | 0.00 | 0.00 | 0.00 | 73 | 1015.0 |
| 20260506104614 | 61 | 228 | 2.0 | 4.0 | 0.00 | 0.00 | 0.00 | 74 | 1014.5 |
| 20260506103050 | 60 | 171 | 0.0 | 4.0 | 0.00 | 0.00 | 0.00 | 74 | 1014.3 |
| 20260506101553 | 60 | 0 | 0.0 | 2.0 | 0.00 | 0.00 | 0.00 | 73 | 1014.3 |
| 20260506100053 | 60 | 128 | 0.0 | 2.0 | 0.00 | 0.00 | 0.00 | 72 | 1014.2 |
| 20260506094552 | 60 | 0 | 0.0 | 0.0 | 0.00 | 0.00 | 0.00 | 71 | 1013.9 |
| 20260506093051 | 60 | 0 | 0.0 | 0.0 | 0.00 | 0.00 | 0.00 | 70 | 1013.9 |
| 20260506091556 | 60 | 0 | 0.0 | 3.0 | 0.00 | 0.00 | 0.00 | 69 | 1013.7 |
| 20260506090055 | 60 | 131 | 0.0 | 3.0 | 0.00 | 0.00 | 0.00 | 68 | 1014.0 |
| 20260506084554 | 60 | 112 | 0.0 | 4.0 | 0.00 | 0.00 | 0.00 | 68 | 1014.0 |
| 20260506083056 | 60 | 0 | 0.0 | 0.0 | 0.00 | 0.00 | 0.00 | 67 | 1014.0 |
| 20260506081558 | 60 | 0 | 0.0 | 0.0 | 0.00 | 0.00 | 0.00 | 67 | 1014.2 |
| 20260506073051 | 60 | 273 | 0.0 | 2.0 | 0.00 | 0.00 | 0.00 | 64 | 1014.4 |
| 20260506071554 | 61 | 0 | 0.0 | 2.0 | 0.00 | 0.00 | 0.00 | 62 | 1014.5 |
| 20260506061551 | 62 | 195 | 0.0 | 7.0 | 0.00 | 0.00 | 0.00 | 59 | 1015.5 |
| 20260506044609 | 61 | 255 | 1.0 | 10.0 | 0.00 | 0.00 | 0.00 | 63 | 1015.4 |
| 20260506043057 | 60 | 0 | 0.0 | 6.0 | 0.00 | 0.00 | 0.00 | 65 | 1015.9 |
| 20260506041554 | 58 | 63 | 1.0 | 3.0 | 0.00 | 0.00 | 0.00 | 68 | 1015.8 |
| 20260506040051 | 57 | 0 | 1.0 | 5.0 | 0.00 | 0.00 | 0.00 | 68 | 1016.1 |
| 20260506034557 | 57 | 342 | 1.0 | 3.0 | 0.00 | 0.00 | 0.00 | 66 | 1015.7 |
| 20260506033047 | 58 | 343 | 1.0 | 3.0 | 0.00 | 0.00 | 0.00 | 64 | 1015.6 |
| 20260506031556 | 58 | 343 | 0.0 | 3.0 | 0.00 | 0.00 | 0.00 | 64 | 1015.6 |
| 20260506030052 | 58 | 339 | 1.0 | 4.0 | 0.00 | 0.00 | 0.00 | 62 | 1015.7 |
| 20260506024549 | 58 | 33 | 2.0 | 4.0 | 0.00 | 0.00 | 0.00 | 63 | 1016.2 |
| 20260506023054 | 58 | 21 | 1.0 | 3.0 | 0.00 | 0.00 | 0.00 | 64 | 1015.9 |
| 20260506021557 | 58 | 0 | 0.0 | 2.0 | 0.00 | 0.00 | 0.00 | 62 | 1015.7 |
| 20260506020051 | 59 | 21 | 1.0 | 3.0 | 0.00 | 0.00 | 0.00 | 60 | 1015.5 |
| 20260506014550 | 60 | 21 | 1.0 | 3.0 | 0.00 | 0.00 | 0.00 | 58 | 1015.5 |
| 20260506013051 | 61 | 21 | 1.0 | 3.0 | 0.00 | 0.00 | 0.00 | 56 | 1015.6 |
| 20260506011555 | 62 | 21 | 1.0 | 4.0 | 0.00 | 0.00 | 0.00 | 57 | 1015.7 |
| 20260506010057 | 63 | 238 | 0.0 | 6.0 | 0.00 | 0.00 | 0.00 | 55 | 1015.7 |
| 20260506004554 | 63 | 219 | 1.0 | 6.0 | 0.00 | 0.00 | 0.00 | 54 | 1015.5 |
| 20260506003107 | 64 | 0 | 1.0 | 11.0 | 0.00 | 0.00 | 0.00 | 53 | 1015.4 |
| 20260506001605 | 64 | 209 | 3.0 | 9.0 | 0.00 | 0.00 | 0.00 | 52 | 1015.2 |
| 20260506000109 | 65 | 252 | 1.0 | 5.0 | 0.00 | 0.00 | 0.00 | 52 | 1015.2 |
| 20260505234610 | 66 | 196 | 3.0 | 11.0 | 0.00 | 0.00 | 0.00 | 51 | 1015.3 |
| 20260505233102 | 66 | 237 | 2.0 | 11.0 | 0.00 | 0.00 | 0.00 | 51 | 1015.2 |